sensor_id;sensor_type;location;lat;lon;timestamp;pressure;altitude;pressure_sealevel;temperature;humidity
35307;BME280;21420;52.196;21.416;2023-05-21T00:01:03;101091.01;;;12.68;56.58
35307;BME280;21420;52.196;21.416;2023-05-21T00:03:33;101087.94;;;12.69;56.56
35307;BME280;21420;52.196;21.416;2023-05-21T00:06:02;101084.91;;;12.68;56.67
35307;BME280;21420;52.196;21.416;2023-05-21T00:08:29;101087.16;;;12.69;56.80
35307;BME280;21420;52.196;21.416;2023-05-21T00:10:56;101088.42;;;12.70;56.71
35307;BME280;21420;52.196;21.416;2023-05-21T00:13:23;101085.39;;;12.68;56.59
35307;BME280;21420;52.196;21.416;2023-05-21T00:15:50;101087.42;;;12.67;56.71
35307;BME280;21420;52.196;21.416;2023-05-21T00:18:17;101082.70;;;12.64;56.72
35307;BME280;21420;52.196;21.416;2023-05-21T00:20:43;101079.55;;;12.62;56.90
35307;BME280;21420;52.196;21.416;2023-05-21T00:23:11;101081.88;;;12.61;56.76
35307;BME280;21420;52.196;21.416;2023-05-21T00:25:37;101080.41;;;12.62;56.85
35307;BME280;21420;52.196;21.416;2023-05-21T00:28:04;101077.73;;;12.62;56.90
35307;BME280;21420;52.196;21.416;2023-05-21T00:30:31;101079.22;;;12.61;56.73
35307;BME280;21420;52.196;21.416;2023-05-21T00:32:57;101076.94;;;12.59;56.90
35307;BME280;21420;52.196;21.416;2023-05-21T00:35:28;101079.45;;;12.57;57.02
35307;BME280;21420;52.196;21.416;2023-05-21T00:37:55;101077.96;;;12.57;57.01
35307;BME280;21420;52.196;21.416;2023-05-21T00:40:23;101079.55;;;12.56;56.97
35307;BME280;21420;52.196;21.416;2023-05-21T00:42:49;101076.89;;;12.54;56.95
35307;BME280;21420;52.196;21.416;2023-05-21T00:45:16;101077.02;;;12.51;57.04
35307;BME280;21420;52.196;21.416;2023-05-21T00:47:43;101080.08;;;12.47;57.21
35307;BME280;21420;52.196;21.416;2023-05-21T00:50:10;101078.15;;;12.42;57.18
35307;BME280;21420;52.196;21.416;2023-05-21T00:52:37;101080.08;;;12.37;56.96
35307;BME280;21420;52.196;21.416;2023-05-21T00:55:08;101081.42;;;12.32;56.88
35307;BME280;21420;52.196;21.416;2023-05-21T00:57:35;101079.70;;;12.26;57.04
35307;BME280;21420;52.196;21.416;2023-05-21T01:00:03;101080.00;;;12.18;57.08
35307;BME280;21420;52.196;21.416;2023-05-21T01:02:35;101076.35;;;12.11;57.11
35307;BME280;21420;52.196;21.416;2023-05-21T01:05:03;101077.83;;;12.03;57.15
35307;BME280;21420;52.196;21.416;2023-05-21T01:07:36;101078.05;;;11.97;56.98
35307;BME280;21420;52.196;21.416;2023-05-21T01:10:06;101078.39;;;11.91;57.09
35307;BME280;21420;52.196;21.416;2023-05-21T01:12:34;101077.45;;;11.83;57.16
35307;BME280;21420;52.196;21.416;2023-05-21T01:15:03;101080.76;;;11.77;57.29
35307;BME280;21420;52.196;21.416;2023-05-21T01:17:31;101083.58;;;11.71;57.35
35307;BME280;21420;52.196;21.416;2023-05-21T01:20:00;101085.48;;;11.66;57.24
35307;BME280;21420;52.196;21.416;2023-05-21T01:22:30;101086.23;;;11.62;57.36
35307;BME280;21420;52.196;21.416;2023-05-21T01:24:58;101085.08;;;11.57;57.57
35307;BME280;21420;52.196;21.416;2023-05-21T01:27:30;101080.13;;;11.51;57.50
35307;BME280;21420;52.196;21.416;2023-05-21T01:29:59;101077.73;;;11.42;57.46
35307;BME280;21420;52.196;21.416;2023-05-21T01:33:02;101079.63;;;11.34;57.57
35307;BME280;21420;52.196;21.416;2023-05-21T01:35:50;101078.35;;;11.27;57.57
35307;BME280;21420;52.196;21.416;2023-05-21T01:38:24;101079.67;;;11.21;57.85
35307;BME280;21420;52.196;21.416;2023-05-21T01:40:57;101078.58;;;11.17;57.74
35307;BME280;21420;52.196;21.416;2023-05-21T01:43:28;101078.77;;;11.15;57.83
35307;BME280;21420;52.196;21.416;2023-05-21T01:45:55;101077.52;;;11.13;57.86
35307;BME280;21420;52.196;21.416;2023-05-21T01:48:24;101074.96;;;11.09;57.84
35307;BME280;21420;52.196;21.416;2023-05-21T01:50:53;101074.52;;;11.08;57.81
35307;BME280;21420;52.196;21.416;2023-05-21T01:53:21;101070.87;;;11.07;57.86
35307;BME280;21420;52.196;21.416;2023-05-21T01:55:48;101066.85;;;11.06;57.84
35307;BME280;21420;52.196;21.416;2023-05-21T01:58:15;101065.48;;;11.01;58.01
35307;BME280;21420;52.196;21.416;2023-05-21T02:00:43;101071.14;;;10.96;57.91
35307;BME280;21420;52.196;21.416;2023-05-21T02:03:12;101070.83;;;10.90;57.96
35307;BME280;21420;52.196;21.416;2023-05-21T02:05:39;101071.16;;;10.85;57.98
35307;BME280;21420;52.196;21.416;2023-05-21T02:08:06;101073.34;;;10.80;57.92
35307;BME280;21420;52.196;21.416;2023-05-21T02:10:34;101073.04;;;10.75;57.92
35307;BME280;21420;52.196;21.416;2023-05-21T02:13:01;101075.98;;;10.71;58.01
35307;BME280;21420;52.196;21.416;2023-05-21T02:18:44;101078.15;;;10.64;58.26
35307;BME280;21420;52.196;21.416;2023-05-21T02:21:12;101081.89;;;10.61;58.31
35307;BME280;21420;52.196;21.416;2023-05-21T02:23:39;101081.42;;;10.58;58.14
35307;BME280;21420;52.196;21.416;2023-05-21T02:26:07;101080.19;;;10.56;58.27
35307;BME280;21420;52.196;21.416;2023-05-21T02:28:34;101077.86;;;10.53;58.52
35307;BME280;21420;52.196;21.416;2023-05-21T02:31:01;101076.02;;;10.49;58.36
35307;BME280;21420;52.196;21.416;2023-05-21T02:33:28;101074.39;;;10.42;58.17
35307;BME280;21420;52.196;21.416;2023-05-21T02:35:55;101074.23;;;10.36;58.46
35307;BME280;21420;52.196;21.416;2023-05-21T02:38:21;101073.90;;;10.32;58.45
35307;BME280;21420;52.196;21.416;2023-05-21T02:40:51;101071.92;;;10.29;58.49
35307;BME280;21420;52.196;21.416;2023-05-21T02:43:18;101070.02;;;10.25;58.66
35307;BME280;21420;52.196;21.416;2023-05-21T02:45:45;101072.27;;;10.23;58.69
35307;BME280;21420;52.196;21.416;2023-05-21T02:48:13;101072.61;;;10.20;58.65
35307;BME280;21420;52.196;21.416;2023-05-21T02:50:40;101071.23;;;10.19;58.66
35307;BME280;21420;52.196;21.416;2023-05-21T02:53:06;101063.92;;;10.19;58.68
35307;BME280;21420;52.196;21.416;2023-05-21T02:55:34;101066.16;;;10.18;58.79
35307;BME280;21420;52.196;21.416;2023-05-21T02:58:01;101068.12;;;10.16;58.86
35307;BME280;21420;52.196;21.416;2023-05-21T03:00:28;101073.24;;;10.17;58.92
35307;BME280;21420;52.196;21.416;2023-05-21T03:02:54;101072.23;;;10.19;58.91
35307;BME280;21420;52.196;21.416;2023-05-21T03:05:22;101076.58;;;10.20;58.89
35307;BME280;21420;52.196;21.416;2023-05-21T03:07:49;101074.29;;;10.21;58.98
35307;BME280;21420;52.196;21.416;2023-05-21T03:10:16;101072.53;;;10.24;59.06
35307;BME280;21420;52.196;21.416;2023-05-21T03:12:43;101068.78;;;10.27;59.04
35307;BME280;21420;52.196;21.416;2023-05-21T03:15:10;101073.16;;;10.31;59.26
35307;BME280;21420;52.196;21.416;2023-05-21T03:17:40;101067.59;;;10.34;59.24
35307;BME280;21420;52.196;21.416;2023-05-21T03:20:10;101067.25;;;10.37;59.22
35307;BME280;21420;52.196;21.416;2023-05-21T03:22:44;101063.47;;;10.43;59.33
35307;BME280;21420;52.196;21.416;2023-05-21T03:25:12;101063.52;;;10.49;59.36
35307;BME280;21420;52.196;21.416;2023-05-21T03:27:38;101061.23;;;10.54;59.37
35307;BME280;21420;52.196;21.416;2023-05-21T03:30:12;101062.45;;;10.58;59.43
35307;BME280;21420;52.196;21.416;2023-05-21T03:32:52;101061.25;;;10.62;59.41
35307;BME280;21420;52.196;21.416;2023-05-21T03:35:19;101064.42;;;10.68;59.51
35307;BME280;21420;52.196;21.416;2023-05-21T03:37:46;101065.38;;;10.74;59.57
35307;BME280;21420;52.196;21.416;2023-05-21T03:40:13;101065.21;;;10.78;59.59
35307;BME280;21420;52.196;21.416;2023-05-21T03:42:40;101064.36;;;10.86;59.62
35307;BME280;21420;52.196;21.416;2023-05-21T03:45:07;101059.88;;;10.94;59.70
35307;BME280;21420;52.196;21.416;2023-05-21T03:47:59;101055.14;;;11.05;59.64
35307;BME280;21420;52.196;21.416;2023-05-21T03:50:28;101051.59;;;11.16;59.66
35307;BME280;21420;52.196;21.416;2023-05-21T03:52:56;101054.71;;;11.27;59.62
35307;BME280;21420;52.196;21.416;2023-05-21T03:55:23;101059.35;;;11.36;59.83
35307;BME280;21420;52.196;21.416;2023-05-21T03:57:49;101060.07;;;11.46;59.95
35307;BME280;21420;52.196;21.416;2023-05-21T04:00:16;101056.72;;;11.59;59.90
35307;BME280;21420;52.196;21.416;2023-05-21T04:02:45;101054.94;;;11.76;60.05
35307;BME280;21420;52.196;21.416;2023-05-21T04:05:14;101052.55;;;11.92;59.95
35307;BME280;21420;52.196;21.416;2023-05-21T04:07:41;101053.18;;;12.06;59.84
35307;BME280;21420;52.196;21.416;2023-05-21T04:10:08;101053.63;;;12.21;60.14
35307;BME280;21420;52.196;21.416;2023-05-21T04:12:35;101054.98;;;12.37;60.09
35307;BME280;21420;52.196;21.416;2023-05-21T04:15:03;101053.98;;;12.52;59.98
35307;BME280;21420;52.196;21.416;2023-05-21T04:17:30;101051.40;;;12.66;59.96
35307;BME280;21420;52.196;21.416;2023-05-21T04:19:56;101050.38;;;12.81;59.86
35307;BME280;21420;52.196;21.416;2023-05-21T04:22:23;101046.71;;;12.96;59.86
35307;BME280;21420;52.196;21.416;2023-05-21T04:24:52;101044.90;;;13.13;59.86
35307;BME280;21420;52.196;21.416;2023-05-21T04:27:24;101042.69;;;13.27;59.69
35307;BME280;21420;52.196;21.416;2023-05-21T04:29:51;101044.44;;;13.41;59.72
35307;BME280;21420;52.196;21.416;2023-05-21T04:32:20;101044.65;;;13.59;59.74
35307;BME280;21420;52.196;21.416;2023-05-21T04:34:47;101036.24;;;13.72;59.62
35307;BME280;21420;52.196;21.416;2023-05-21T04:37:14;101039.27;;;13.83;59.59
35307;BME280;21420;52.196;21.416;2023-05-21T04:39:44;101039.33;;;13.94;59.49
35307;BME280;21420;52.196;21.416;2023-05-21T04:42:11;101034.13;;;14.06;59.47
35307;BME280;21420;52.196;21.416;2023-05-21T04:44:38;101029.30;;;14.18;59.40
35307;BME280;21420;52.196;21.416;2023-05-21T04:47:05;101027.11;;;14.25;59.37
35307;BME280;21420;52.196;21.416;2023-05-21T04:49:34;101028.31;;;14.33;59.16
35307;BME280;21420;52.196;21.416;2023-05-21T04:52:01;101028.64;;;14.42;59.14
35307;BME280;21420;52.196;21.416;2023-05-21T04:54:28;101028.42;;;14.50;59.13
35307;BME280;21420;52.196;21.416;2023-05-21T04:56:54;101028.08;;;14.58;59.20
35307;BME280;21420;52.196;21.416;2023-05-21T04:59:21;101029.08;;;14.68;59.08
35307;BME280;21420;52.196;21.416;2023-05-21T05:01:48;101024.72;;;14.80;58.93
35307;BME280;21420;52.196;21.416;2023-05-21T05:04:14;101025.98;;;14.91;58.73
35307;BME280;21420;52.196;21.416;2023-05-21T05:06:41;101028.74;;;14.96;58.61
35307;BME280;21420;52.196;21.416;2023-05-21T05:09:08;101026.98;;;15.04;58.75
35307;BME280;21420;52.196;21.416;2023-05-21T05:11:35;101028.33;;;15.15;58.69
35307;BME280;21420;52.196;21.416;2023-05-21T05:14:02;101029.62;;;15.25;58.34
35307;BME280;21420;52.196;21.416;2023-05-21T05:16:29;101028.86;;;15.32;58.63
35307;BME280;21420;52.196;21.416;2023-05-21T05:18:56;101031.03;;;15.39;58.57
35307;BME280;21420;52.196;21.416;2023-05-21T05:21:23;101032.05;;;15.48;58.26
35307;BME280;21420;52.196;21.416;2023-05-21T05:23:50;101034.27;;;15.57;58.04
35307;BME280;21420;52.196;21.416;2023-05-21T05:26:18;101031.37;;;15.67;58.10
35307;BME280;21420;52.196;21.416;2023-05-21T05:28:45;101031.88;;;15.76;58.10
35307;BME280;21420;52.196;21.416;2023-05-21T05:31:12;101028.25;;;15.86;58.05
35307;BME280;21420;52.196;21.416;2023-05-21T05:33:41;101030.54;;;15.99;57.99
35307;BME280;21420;52.196;21.416;2023-05-21T05:36:07;101029.29;;;16.09;57.91
35307;BME280;21420;52.196;21.416;2023-05-21T05:38:34;101026.77;;;16.16;57.54
35307;BME280;21420;52.196;21.416;2023-05-21T05:41:01;101026.19;;;16.21;57.55
35307;BME280;21420;52.196;21.416;2023-05-21T05:43:28;101025.25;;;16.25;57.74
35307;BME280;21420;52.196;21.416;2023-05-21T05:45:56;101021.88;;;16.33;57.53
35307;BME280;21420;52.196;21.416;2023-05-21T05:48:23;101018.59;;;16.44;57.59
35307;BME280;21420;52.196;21.416;2023-05-21T05:50:49;101023.19;;;16.56;57.71
35307;BME280;21420;52.196;21.416;2023-05-21T05:53:20;101021.78;;;16.71;57.55
35307;BME280;21420;52.196;21.416;2023-05-21T05:55:47;101022.36;;;16.86;57.56
35307;BME280;21420;52.196;21.416;2023-05-21T05:58:14;101023.40;;;16.97;57.43
35307;BME280;21420;52.196;21.416;2023-05-21T06:00:48;101023.61;;;17.04;57.39
35307;BME280;21420;52.196;21.416;2023-05-21T06:03:14;101026.16;;;17.14;57.18
35307;BME280;21420;52.196;21.416;2023-05-21T06:05:41;101026.36;;;17.24;57.26
35307;BME280;21420;52.196;21.416;2023-05-21T06:08:09;101026.52;;;17.29;57.08
35307;BME280;21420;52.196;21.416;2023-05-21T06:10:35;101020.17;;;17.31;57.07
35307;BME280;21420;52.196;21.416;2023-05-21T06:13:02;101022.60;;;17.38;56.95
35307;BME280;21420;52.196;21.416;2023-05-21T06:15:29;101023.03;;;17.49;56.91
35307;BME280;21420;52.196;21.416;2023-05-21T06:17:55;101020.43;;;17.62;56.83
35307;BME280;21420;52.196;21.416;2023-05-21T06:20:22;101023.28;;;17.72;56.79
35307;BME280;21420;52.196;21.416;2023-05-21T06:22:49;101024.02;;;17.78;56.81
35307;BME280;21420;52.196;21.416;2023-05-21T06:25:15;101022.96;;;17.84;56.71
35307;BME280;21420;52.196;21.416;2023-05-21T06:27:43;101023.61;;;17.89;56.46
35307;BME280;21420;52.196;21.416;2023-05-21T06:30:16;101022.19;;;17.99;56.49
35307;BME280;21420;52.196;21.416;2023-05-21T06:32:42;101021.39;;;18.09;56.43
35307;BME280;21420;52.196;21.416;2023-05-21T06:35:10;101022.02;;;18.18;56.49
35307;BME280;21420;52.196;21.416;2023-05-21T06:37:37;101019.60;;;18.31;56.23
35307;BME280;21420;52.196;21.416;2023-05-21T06:40:04;101020.83;;;18.44;56.33
35307;BME280;21420;52.196;21.416;2023-05-21T06:42:32;101015.95;;;18.52;56.21
35307;BME280;21420;52.196;21.416;2023-05-21T06:45:25;101009.77;;;18.58;56.00
35307;BME280;21420;52.196;21.416;2023-05-21T06:47:56;101012.00;;;18.71;56.13
35307;BME280;21420;52.196;21.416;2023-05-21T06:50:23;101010.64;;;18.87;56.01
35307;BME280;21420;52.196;21.416;2023-05-21T06:52:50;101009.08;;;19.02;55.93
35307;BME280;21420;52.196;21.416;2023-05-21T06:55:17;101007.14;;;19.19;55.90
35307;BME280;21420;52.196;21.416;2023-05-21T06:57:59;101006.02;;;19.55;56.00
35307;BME280;21420;52.196;21.416;2023-05-21T07:00:26;101002.04;;;20.11;56.24
35307;BME280;21420;52.196;21.416;2023-05-21T07:02:53;101000.98;;;20.85;56.08
35307;BME280;21420;52.196;21.416;2023-05-21T07:05:20;101005.10;;;21.68;55.83
35307;BME280;21420;52.196;21.416;2023-05-21T07:07:46;100998.58;;;22.53;55.71
35307;BME280;21420;52.196;21.416;2023-05-21T07:10:13;100997.45;;;23.45;55.56
35307;BME280;21420;52.196;21.416;2023-05-21T07:12:40;100996.15;;;24.29;55.35
35307;BME280;21420;52.196;21.416;2023-05-21T07:15:08;100995.98;;;25.19;55.25
35307;BME280;21420;52.196;21.416;2023-05-21T07:17:35;101000.77;;;26.02;54.63
35307;BME280;21420;52.196;21.416;2023-05-21T07:20:03;100999.13;;;26.70;54.08
35307;BME280;21420;52.196;21.416;2023-05-21T07:22:33;100997.58;;;27.36;53.52
35307;BME280;21420;52.196;21.416;2023-05-21T07:25:00;100994.53;;;27.95;53.18
35307;BME280;21420;52.196;21.416;2023-05-21T07:27:27;100996.20;;;28.62;53.19
35307;BME280;21420;52.196;21.416;2023-05-21T07:29:54;100996.65;;;29.11;52.41
35307;BME280;21420;52.196;21.416;2023-05-21T07:32:21;100997.80;;;29.54;51.74
35307;BME280;21420;52.196;21.416;2023-05-21T07:34:48;100999.39;;;30.03;51.51
35307;BME280;21420;52.196;21.416;2023-05-21T07:37:14;101000.13;;;30.39;50.80
35307;BME280;21420;52.196;21.416;2023-05-21T07:39:41;101002.84;;;30.72;50.59
35307;BME280;21420;52.196;21.416;2023-05-21T07:42:09;100999.04;;;31.22;50.43
35307;BME280;21420;52.196;21.416;2023-05-21T07:44:36;100999.52;;;31.62;49.92
35307;BME280;21420;52.196;21.416;2023-05-21T07:47:03;100996.94;;;31.86;49.18
35307;BME280;21420;52.196;21.416;2023-05-21T07:49:30;100993.34;;;31.91;48.55
35307;BME280;21420;52.196;21.416;2023-05-21T07:51:57;100998.02;;;32.25;48.04
35307;BME280;21420;52.196;21.416;2023-05-21T07:54:24;100994.21;;;32.23;47.47
35307;BME280;21420;52.196;21.416;2023-05-21T07:56:52;100990.44;;;32.66;47.87
35307;BME280;21420;52.196;21.416;2023-05-21T07:59:44;100982.73;;;33.30;47.71
35307;BME280;21420;52.196;21.416;2023-05-21T08:02:11;100987.23;;;33.68;47.11
35307;BME280;21420;52.196;21.416;2023-05-21T08:04:37;100981.47;;;33.84;46.71
35307;BME280;21420;52.196;21.416;2023-05-21T08:07:07;100983.45;;;33.97;45.93
35307;BME280;21420;52.196;21.416;2023-05-21T08:09:35;100978.85;;;33.89;45.52
35307;BME280;21420;52.196;21.416;2023-05-21T08:12:03;100975.73;;;34.11;45.60
35307;BME280;21420;52.196;21.416;2023-05-21T08:14:29;100975.39;;;34.49;45.40
35307;BME280;21420;52.196;21.416;2023-05-21T08:16:56;100980.13;;;34.79;45.13
35307;BME280;21420;52.196;21.416;2023-05-21T08:19:23;100978.16;;;34.94;44.70
35307;BME280;21420;52.196;21.416;2023-05-21T08:21:50;100978.64;;;35.06;44.04
35307;BME280;21420;52.196;21.416;2023-05-21T08:24:19;100973.02;;;35.03;43.68
35307;BME280;21420;52.196;21.416;2023-05-21T08:26:46;100973.66;;;35.17;43.67
35307;BME280;21420;52.196;21.416;2023-05-21T08:29:15;100976.22;;;35.25;43.00
35307;BME280;21420;52.196;21.416;2023-05-21T08:31:41;100966.58;;;35.11;42.76
35307;BME280;21420;52.196;21.416;2023-05-21T08:34:08;100964.09;;;35.48;43.07
35307;BME280;21420;52.196;21.416;2023-05-21T08:36:44;100964.35;;;35.74;42.55
35307;BME280;21420;52.196;21.416;2023-05-21T08:39:31;100963.31;;;35.95;42.30
35307;BME280;21420;52.196;21.416;2023-05-21T08:42:05;100960.51;;;36.11;42.13
35307;BME280;21420;52.196;21.416;2023-05-21T08:44:35;100957.09;;;36.28;41.89
35307;BME280;21420;52.196;21.416;2023-05-21T08:47:06;100958.66;;;36.30;41.66
35307;BME280;21420;52.196;21.416;2023-05-21T08:49:36;100956.02;;;36.62;41.62
35307;BME280;21420;52.196;21.416;2023-05-21T08:52:03;100959.40;;;36.47;40.70
35307;BME280;21420;52.196;21.416;2023-05-21T08:54:32;100960.44;;;36.22;40.43
35307;BME280;21420;52.196;21.416;2023-05-21T08:57:00;100964.96;;;35.77;39.27
35307;BME280;21420;52.196;21.416;2023-05-21T08:59:28;100959.98;;;35.47;39.65
35307;BME280;21420;52.196;21.416;2023-05-21T09:01:55;100959.39;;;35.90;39.99
35307;BME280;21420;52.196;21.416;2023-05-21T09:04:27;100953.80;;;36.32;40.39
35307;BME280;21420;52.196;21.416;2023-05-21T09:06:54;100951.09;;;36.98;40.19
35307;BME280;21420;52.196;21.416;2023-05-21T09:09:55;100954.20;;;36.43;38.74
35307;BME280;21420;52.196;21.416;2023-05-21T09:12:23;100955.54;;;36.24;39.04
35307;BME280;21420;52.196;21.416;2023-05-21T09:14:55;100951.68;;;36.43;39.05
35307;BME280;21420;52.196;21.416;2023-05-21T09:17:27;100952.73;;;36.57;38.82
35307;BME280;21420;52.196;21.416;2023-05-21T09:20:13;100956.21;;;36.71;38.87
35307;BME280;21420;52.196;21.416;2023-05-21T09:22:47;100951.70;;;37.09;38.66
35307;BME280;21420;52.196;21.416;2023-05-21T09:25:25;100955.50;;;37.18;38.37
35307;BME280;21420;52.196;21.416;2023-05-21T09:27:58;100951.70;;;37.03;37.63
35307;BME280;21420;52.196;21.416;2023-05-21T09:30:26;100948.09;;;37.21;38.20
35307;BME280;21420;52.196;21.416;2023-05-21T09:32:58;100946.28;;;37.93;38.39
35307;BME280;21420;52.196;21.416;2023-05-21T09:35:25;100944.80;;;37.83;37.20
35307;BME280;21420;52.196;21.416;2023-05-21T09:37:52;100943.15;;;37.44;36.45
35307;BME280;21420;52.196;21.416;2023-05-21T09:40:21;100947.95;;;36.82;36.14
35307;BME280;21420;52.196;21.416;2023-05-21T09:42:49;100944.34;;;36.77;36.47
35307;BME280;21420;52.196;21.416;2023-05-21T09:45:21;100943.10;;;36.66;36.00
35307;BME280;21420;52.196;21.416;2023-05-21T09:47:49;100937.95;;;36.38;35.98
35307;BME280;21420;52.196;21.416;2023-05-21T09:50:26;100935.61;;;36.09;35.37
35307;BME280;21420;52.196;21.416;2023-05-21T09:52:56;100935.92;;;35.85;35.50
35307;BME280;21420;52.196;21.416;2023-05-21T09:55:25;100934.59;;;36.04;35.87
35307;BME280;21420;52.196;21.416;2023-05-21T09:57:52;100931.48;;;36.01;35.27
35307;BME280;21420;52.196;21.416;2023-05-21T10:00:23;100931.63;;;35.82;34.82
35307;BME280;21420;52.196;21.416;2023-05-21T10:02:54;100931.86;;;35.88;35.42
35307;BME280;21420;52.196;21.416;2023-05-21T10:05:25;100926.60;;;36.21;35.52
35307;BME280;21420;52.196;21.416;2023-05-21T10:07:51;100932.73;;;36.28;35.36
35307;BME280;21420;52.196;21.416;2023-05-21T10:10:22;100933.24;;;36.29;34.77
35307;BME280;21420;52.196;21.416;2023-05-21T10:15:33;100929.80;;;36.20;34.72
35307;BME280;21420;52.196;21.416;2023-05-21T10:18:01;100932.38;;;36.20;34.75
35307;BME280;21420;52.196;21.416;2023-05-21T10:20:29;100934.14;;;36.56;35.08
35307;BME280;21420;52.196;21.416;2023-05-21T10:22:57;100928.95;;;36.87;34.49
35307;BME280;21420;52.196;21.416;2023-05-21T10:25:25;100925.50;;;36.47;34.13
35307;BME280;21420;52.196;21.416;2023-05-21T10:27:54;100923.00;;;36.10;33.65
35307;BME280;21420;52.196;21.416;2023-05-21T10:30:22;100920.90;;;35.95;33.79
35307;BME280;21420;52.196;21.416;2023-05-21T10:32:54;100922.27;;;35.97;33.81
35307;BME280;21420;52.196;21.416;2023-05-21T10:35:21;100920.38;;;36.17;34.11
35307;BME280;21420;52.196;21.416;2023-05-21T10:37:50;100916.21;;;36.63;34.31
35307;BME280;21420;52.196;21.416;2023-05-21T10:40:17;100917.11;;;36.49;33.60
35307;BME280;21420;52.196;21.416;2023-05-21T10:42:56;100911.94;;;36.17;33.17
35307;BME280;21420;52.196;21.416;2023-05-21T10:52:15;100909.98;;;36.08;33.30
35307;BME280;21420;52.196;21.416;2023-05-21T10:57:03;100911.42;;;35.81;32.62
35307;BME280;21420;52.196;21.416;2023-05-21T10:59:41;100910.89;;;34.92;32.06
35307;BME280;21420;52.196;21.416;2023-05-21T11:02:10;100906.85;;;34.88;32.84
35307;BME280;21420;52.196;21.416;2023-05-21T11:04:39;100906.64;;;35.12;33.10
35307;BME280;21420;52.196;21.416;2023-05-21T11:07:10;100902.50;;;35.18;32.66
35307;BME280;21420;52.196;21.416;2023-05-21T11:09:37;100901.73;;;34.98;32.43
35307;BME280;21420;52.196;21.416;2023-05-21T11:12:04;100899.56;;;34.88;32.54
35307;BME280;21420;52.196;21.416;2023-05-21T11:14:35;100894.05;;;34.83;32.52
35307;BME280;21420;52.196;21.416;2023-05-21T11:19:37;100892.55;;;35.16;32.83
35307;BME280;21420;52.196;21.416;2023-05-21T11:22:25;100891.59;;;35.18;32.63
35307;BME280;21420;52.196;21.416;2023-05-21T11:24:54;100888.54;;;34.84;32.18
35307;BME280;21420;52.196;21.416;2023-05-21T11:27:35;100882.11;;;34.52;32.06
35307;BME280;21420;52.196;21.416;2023-05-21T11:30:23;100878.29;;;34.27;31.99
35307;BME280;21420;52.196;21.416;2023-05-21T11:38:16;100873.74;;;34.67;32.57
35307;BME280;21420;52.196;21.416;2023-05-21T11:40:50;100877.04;;;34.86;32.58
35307;BME280;21420;52.196;21.416;2023-05-21T11:43:20;100871.77;;;34.67;32.06
35307;BME280;21420;52.196;21.416;2023-05-21T11:45:48;100868.63;;;34.49;31.95
35307;BME280;21420;52.196;21.416;2023-05-21T11:48:20;100866.14;;;34.46;32.02
35307;BME280;21420;52.196;21.416;2023-05-21T11:50:53;100865.67;;;34.39;31.69
35307;BME280;21420;52.196;21.416;2023-05-21T11:53:19;100866.73;;;34.11;31.64
35307;BME280;21420;52.196;21.416;2023-05-21T11:55:46;100867.69;;;33.83;31.53
35307;BME280;21420;52.196;21.416;2023-05-21T11:58:13;100869.02;;;33.97;32.15
35307;BME280;21420;52.196;21.416;2023-05-21T12:00:42;100867.63;;;34.54;32.31
35307;BME280;21420;52.196;21.416;2023-05-21T12:03:12;100864.94;;;34.51;31.70
35307;BME280;21420;52.196;21.416;2023-05-21T12:05:46;100870.40;;;33.79;30.79
35307;BME280;21420;52.196;21.416;2023-05-21T12:08:21;100863.48;;;32.91;30.65
35307;BME280;21420;52.196;21.416;2023-05-21T12:10:58;100862.04;;;32.59;31.03
35307;BME280;21420;52.196;21.416;2023-05-21T12:13:25;100860.06;;;32.54;31.25
35307;BME280;21420;52.196;21.416;2023-05-21T12:15:55;100863.91;;;32.32;31.06
35307;BME280;21420;52.196;21.416;2023-05-21T12:18:21;100865.64;;;32.33;31.52
35307;BME280;21420;52.196;21.416;2023-05-21T12:20:50;100862.13;;;32.59;31.71
35307;BME280;21420;52.196;21.416;2023-05-21T12:23:24;100864.84;;;32.47;31.17
35307;BME280;21420;52.196;21.416;2023-05-21T12:25:51;100860.89;;;32.13;31.19
35307;BME280;21420;52.196;21.416;2023-05-21T12:28:20;100853.39;;;31.98;31.31
35307;BME280;21420;52.196;21.416;2023-05-21T12:30:47;100859.37;;;31.82;31.24
35307;BME280;21420;52.196;21.416;2023-05-21T12:33:14;100858.77;;;31.60;31.30
35307;BME280;21420;52.196;21.416;2023-05-21T12:35:46;100857.06;;;31.48;31.48
35307;BME280;21420;52.196;21.416;2023-05-21T12:38:15;100850.94;;;31.49;31.36
35307;BME280;21420;52.196;21.416;2023-05-21T12:40:42;100857.95;;;31.30;31.21
35307;BME280;21420;52.196;21.416;2023-05-21T12:43:10;100857.28;;;31.13;31.28
35307;BME280;21420;52.196;21.416;2023-05-21T12:45:37;100852.44;;;31.23;31.54
35307;BME280;21420;52.196;21.416;2023-05-21T12:48:07;100855.93;;;31.22;31.38
35307;BME280;21420;52.196;21.416;2023-05-21T12:50:38;100852.45;;;31.04;31.28
35307;BME280;21420;52.196;21.416;2023-05-21T12:53:08;100850.27;;;31.07;31.42
35307;BME280;21420;52.196;21.416;2023-05-21T12:55:34;100853.83;;;30.84;30.96
35307;BME280;21420;52.196;21.416;2023-05-21T12:58:03;100850.65;;;30.62;31.07
35307;BME280;21420;52.196;21.416;2023-05-21T13:00:31;100850.47;;;30.53;31.00
35307;BME280;21420;52.196;21.416;2023-05-21T13:02:58;100846.70;;;30.31;31.07
35307;BME280;21420;52.196;21.416;2023-05-21T13:05:26;100848.35;;;30.30;31.37
35307;BME280;21420;52.196;21.416;2023-05-21T13:07:53;100846.30;;;30.44;31.63
35307;BME280;21420;52.196;21.416;2023-05-21T13:10:20;100835.87;;;30.57;31.45
35307;BME280;21420;52.196;21.416;2023-05-21T13:12:47;100831.87;;;30.43;31.46